createdAt,value
2022-09-12T00:02:04.834Z,8.36
2022-09-12T00:04:33.443Z,8.93
2022-09-12T00:07:00.353Z,8.21
2022-09-12T00:09:27.513Z,8.29
2022-09-12T00:11:54.609Z,8.57
2022-09-12T00:14:21.349Z,8.61
2022-09-12T00:16:49.661Z,8.83
2022-09-12T00:19:16.276Z,8.47
2022-09-12T00:21:43.860Z,8.08
2022-09-12T00:24:11.034Z,7.95
2022-09-12T00:26:37.808Z,8.50
2022-09-12T00:29:05.173Z,7.82
2022-09-12T00:31:33.563Z,8.50
2022-09-12T00:34:01.762Z,8.78
2022-09-12T00:36:30.504Z,8.91
2022-09-12T00:38:59.316Z,8.13
2022-09-12T00:41:30.109Z,8.64
2022-09-12T00:44:24.260Z,7.79
2022-09-12T00:46:50.977Z,8.88
2022-09-12T00:49:58.954Z,8.44
2022-09-12T00:52:46.161Z,8.78
2022-09-12T00:55:16.971Z,8.62
2022-09-12T00:58:21.335Z,7.89
2022-09-12T01:00:48.197Z,8.68
2022-09-12T01:03:17.418Z,8.61
2022-09-12T01:06:09.860Z,8.75
2022-09-12T01:08:41.122Z,7.67
2022-09-12T01:11:09.841Z,8.64
2022-09-12T01:13:37.116Z,8.51
2022-09-12T01:16:06.063Z,8.63
2022-09-12T01:18:55.654Z,8.63
2022-09-12T01:21:53.019Z,8.63
2022-09-12T01:24:49.566Z,8.52
2022-09-12T01:27:35.268Z,8.45
2022-09-12T01:30:14.491Z,8.29
2022-09-12T01:32:54.852Z,8.08
2022-09-12T01:35:33.167Z,7.86
2022-09-12T01:38:26.743Z,8.36
2022-09-12T01:41:03.996Z,8.31
2022-09-12T01:43:48.099Z,8.22
2022-09-12T01:46:27.341Z,8.12
2022-09-12T01:49:06.982Z,8.25
2022-09-12T01:51:33.783Z,8.34
2022-09-12T01:54:06.927Z,7.96
2022-09-12T01:56:39.076Z,7.22
2022-09-12T01:59:26.884Z,8.28
2022-09-12T02:02:03.869Z,8.00
2022-09-12T02:04:37.307Z,7.09
2022-09-12T02:07:11.173Z,7.20
2022-09-12T02:09:46.895Z,7.97
2022-09-12T02:12:17.929Z,7.86
2022-09-12T02:14:50.231Z,7.04
2022-09-12T02:17:21.043Z,7.28
2022-09-12T02:19:57.613Z,6.81
2022-09-12T02:22:27.868Z,6.97
2022-09-12T02:24:59.416Z,7.94
2022-09-12T02:27:30.201Z,7.84
2022-09-12T02:29:57.219Z,7.99
2022-09-12T02:32:30.784Z,7.96
2022-09-12T02:35:36.872Z,8.04
2022-09-12T02:38:13.255Z,7.92
2022-09-12T02:40:41.008Z,7.06
2022-09-12T02:43:07.764Z,7.95
2022-09-12T02:45:35.945Z,7.91
2022-09-12T02:48:04.908Z,7.94
2022-09-12T02:50:32.335Z,7.52
2022-09-12T02:53:04.349Z,7.16
2022-09-12T02:55:33.600Z,8.00
2022-09-12T02:58:05.446Z,6.99
2022-09-12T03:00:38.103Z,7.21
2022-09-12T03:03:22.404Z,7.15
2022-09-12T03:05:58.290Z,7.53
2022-09-12T03:08:44.413Z,7.95
2022-09-12T03:11:21.200Z,7.90
2022-09-12T03:14:06.769Z,7.89
2022-09-12T03:16:46.719Z,7.88
2022-09-12T03:19:31.190Z,7.78
2022-09-12T03:22:19.327Z,7.89
2022-09-12T03:25:34.594Z,7.92
2022-09-12T03:28:07.626Z,7.79
2022-09-12T03:30:41.081Z,7.84
2022-09-12T03:33:12.030Z,7.84
2022-09-12T03:35:39.063Z,6.99
2022-09-12T03:38:08.035Z,7.76
2022-09-12T03:40:35.797Z,6.94
2022-09-12T03:43:03.261Z,7.66
2022-09-12T03:45:30.316Z,7.46
2022-09-12T03:47:57.903Z,7.56
2022-09-12T03:50:25.646Z,7.68
2022-09-12T03:52:52.444Z,7.63
2022-09-12T03:55:20.163Z,7.61
2022-09-12T03:57:48.348Z,7.53
2022-09-12T04:00:19.841Z,7.60
2022-09-12T04:02:48.871Z,7.60
2022-09-12T04:05:16.568Z,7.57
2022-09-12T04:07:44.084Z,7.70
2022-09-12T04:10:11.139Z,7.47
2022-09-12T04:12:39.557Z,7.58
2022-09-12T04:15:07.764Z,6.87
2022-09-12T04:17:35.520Z,7.43
2022-09-12T04:20:02.749Z,6.63
2022-09-12T04:22:31.928Z,6.92
2022-09-12T04:24:59.839Z,7.46
2022-09-12T04:27:27.417Z,7.55
2022-09-12T04:29:55.998Z,6.88
2022-09-12T04:32:24.387Z,7.50
2022-09-12T04:34:52.671Z,7.19
2022-09-12T04:37:20.545Z,6.98
2022-09-12T04:39:49.034Z,7.48
2022-09-12T04:42:16.343Z,7.44
2022-09-12T04:44:43.505Z,6.53
2022-09-12T04:47:10.290Z,7.57
2022-09-12T04:49:37.671Z,7.71
2022-09-12T04:52:04.948Z,7.47
2022-09-12T04:54:34.272Z,7.46
2022-09-12T04:57:02.027Z,7.54
2022-09-12T04:59:30.607Z,7.66
2022-09-12T05:01:58.476Z,7.43
2022-09-12T05:04:25.728Z,7.57
2022-09-12T05:06:53.108Z,7.14
2022-09-12T05:09:19.799Z,7.28
2022-09-12T05:12:04.711Z,7.41
2022-09-12T05:14:33.808Z,7.64
2022-09-12T05:17:01.826Z,7.09
2022-09-12T05:19:30.352Z,7.72
2022-09-12T05:21:57.477Z,7.59
2022-09-12T05:24:25.031Z,7.06
2022-09-12T05:26:52.986Z,7.50
2022-09-12T05:29:20.281Z,7.52
2022-09-12T05:31:50.135Z,7.57
2022-09-12T05:34:19.190Z,7.19
2022-09-12T05:36:45.943Z,7.71
2022-09-12T05:39:12.755Z,7.60
2022-09-12T05:41:39.646Z,7.87
2022-09-12T05:44:07.376Z,7.77
2022-09-12T05:46:40.148Z,7.76
2022-09-12T05:49:09.900Z,7.87
2022-09-12T05:51:39.257Z,7.80
2022-09-12T05:54:07.807Z,7.76
2022-09-12T05:56:40.826Z,7.78
2022-09-12T05:59:13.240Z,7.87
2022-09-12T06:01:42.193Z,7.72
2022-09-12T06:04:11.214Z,7.60
2022-09-12T06:06:45.226Z,7.42
2022-09-12T06:09:15.282Z,7.70
2022-09-12T06:11:43.368Z,8.24
2022-09-12T06:14:11.980Z,7.90
2022-09-12T06:16:39.575Z,7.76
2022-09-12T06:19:18.390Z,8.66
2022-09-12T06:21:45.630Z,8.51
2022-09-12T06:24:13.254Z,7.98
2022-09-12T06:26:40.203Z,8.42
2022-09-12T06:29:08.462Z,8.41
2022-09-12T06:31:36.838Z,8.48
2022-09-12T06:34:05.810Z,8.49
2022-09-12T06:36:38.975Z,8.70
2022-09-12T06:39:11.755Z,8.81
2022-09-12T06:41:44.041Z,8.95
2022-09-12T06:44:17.124Z,9.07
2022-09-12T06:46:44.419Z,9.02
2022-09-12T06:49:11.349Z,9.27
2022-09-12T06:51:38.711Z,9.21
2022-09-12T06:54:06.257Z,9.07
2022-09-12T06:56:33.604Z,9.46
2022-09-12T06:59:03.375Z,8.84
2022-09-12T07:01:33.306Z,9.73
2022-09-12T07:04:02.482Z,9.89
2022-09-12T07:06:35.451Z,9.34
2022-09-12T07:09:03.842Z,10.11
2022-09-12T07:11:36.531Z,9.32
2022-09-12T07:14:04.766Z,10.00
2022-09-12T07:16:32.102Z,10.39
2022-09-12T07:19:02.955Z,10.49
2022-09-12T07:21:31.071Z,10.27
2022-09-12T07:23:58.114Z,11.19
2022-09-12T07:26:26.922Z,10.59
2022-09-12T07:28:54.748Z,11.55
2022-09-12T07:31:26.916Z,10.74
2022-09-12T07:33:56.342Z,11.49
2022-09-12T07:36:25.490Z,11.48
2022-09-12T07:38:57.613Z,11.83
2022-09-12T07:41:26.949Z,11.36
2022-09-12T07:43:55.251Z,12.28
2022-09-12T07:46:27.847Z,12.07
2022-09-12T07:48:56.590Z,12.32
2022-09-12T07:51:24.416Z,12.63
2022-09-12T07:53:52.447Z,12.87
2022-09-12T07:56:32.717Z,12.50
2022-09-12T07:59:05.819Z,13.07
2022-09-12T08:02:14.691Z,12.27
2022-09-12T08:13:17.629Z,13.57
2022-09-12T08:24:21.160Z,13.88
2022-09-12T08:34:36.391Z,14.67
2022-09-12T08:38:08.826Z,15.00
2022-09-12T08:41:35.059Z,14.83
2022-09-12T08:44:53.259Z,15.14
2022-09-12T08:47:57.381Z,15.20
2022-09-12T08:50:24.385Z,14.44
2022-09-12T08:53:21.093Z,15.37
2022-09-12T08:56:44.984Z,15.11
2022-09-12T09:00:01.724Z,15.46
2022-09-12T09:02:53.283Z,15.59
2022-09-12T09:06:09.228Z,15.23
2022-09-12T09:09:07.658Z,15.76
2022-09-12T09:18:40.650Z,15.89
2022-09-12T09:21:43.918Z,15.58
2022-09-12T09:24:27.555Z,15.63
2022-09-12T09:27:40.611Z,15.65
2022-09-12T09:30:28.859Z,16.62
2022-09-12T09:33:22.341Z,16.12
2022-09-12T09:36:25.306Z,16.66
2022-09-12T09:39:24.199Z,16.91
2022-09-12T09:42:09.726Z,17.01
2022-09-12T09:44:54.604Z,16.69
2022-09-12T09:47:52.983Z,17.08
2022-09-12T09:50:25.008Z,17.65
2022-09-12T09:53:00.446Z,18.24
2022-09-12T09:55:34.170Z,18.10
2022-09-12T09:58:04.263Z,18.54
2022-09-12T10:00:36.981Z,19.19
2022-09-12T10:03:13.914Z,19.65
2022-09-12T10:05:50.903Z,19.37
2022-09-12T10:08:26.931Z,20.01
2022-09-12T10:11:16.142Z,20.46
2022-09-12T10:13:57.748Z,20.62
2022-09-12T10:16:32.864Z,20.89
2022-09-12T10:19:02.074Z,21.06
2022-09-12T10:21:50.703Z,21.60
2022-09-12T10:24:33.685Z,21.49
2022-09-12T10:27:15.155Z,21.54
2022-09-12T10:30:17.919Z,21.92
2022-09-12T10:32:48.726Z,22.27
2022-09-12T10:35:30.983Z,21.94
2022-09-12T10:38:25.544Z,22.47
2022-09-12T10:41:03.536Z,22.92
2022-09-12T10:43:33.740Z,23.14
2022-09-12T10:46:16.336Z,23.19
2022-09-12T10:48:44.191Z,23.44
2022-09-12T10:51:26.116Z,23.84
2022-09-12T10:53:54.411Z,24.07
2022-09-12T10:56:23.636Z,24.04
2022-09-12T10:59:28.614Z,24.37
2022-09-12T11:02:00.981Z,24.12
2022-09-12T11:04:46.446Z,24.22
2022-09-12T11:24:09.501Z,25.03
2022-09-12T11:26:51.187Z,25.25
2022-09-12T11:29:47.384Z,25.61
2022-09-12T11:32:50.179Z,25.26
2022-09-12T11:35:55.515Z,25.00
2022-09-12T11:38:51.483Z,25.60
2022-09-12T11:41:21.287Z,25.31
2022-09-12T11:44:12.186Z,24.63
2022-09-12T11:46:47.680Z,25.15
2022-09-12T11:49:35.975Z,25.36
2022-09-12T11:52:12.133Z,25.20
2022-09-12T11:54:56.270Z,25.19
2022-09-12T11:57:34.384Z,25.54
2022-09-12T12:00:18.296Z,25.14
2022-09-12T12:03:07.907Z,24.72
2022-09-12T12:05:51.209Z,25.56
2022-09-12T12:08:22.882Z,24.98
2022-09-12T12:11:03.137Z,25.71
2022-09-12T12:13:46.243Z,26.02
2022-09-12T12:16:22.252Z,25.54
2022-09-12T12:19:00.554Z,25.13
2022-09-12T12:21:46.928Z,25.28
2022-09-12T12:24:17.599Z,24.79
2022-09-12T12:40:03.492Z,24.17
2022-09-12T12:49:27.654Z,22.38
2022-09-12T12:52:18.352Z,22.65
2022-09-12T12:54:46.256Z,22.59
2022-09-12T12:57:13.509Z,22.47
2022-09-12T12:59:54.046Z,22.12
2022-09-12T13:02:25.919Z,21.96
2022-09-12T13:04:54.769Z,22.20
2022-09-12T13:07:31.183Z,22.21
2022-09-12T13:09:59.543Z,21.76
2022-09-12T13:12:31.161Z,21.97
2022-09-12T13:14:59.847Z,22.17
2022-09-12T13:17:47.542Z,21.85
2022-09-12T13:20:29.421Z,22.03
2022-09-12T13:22:57.429Z,21.83
2022-09-12T13:25:35.862Z,21.68
2022-09-12T13:28:12.311Z,21.59
2022-09-12T13:30:41.592Z,21.53
2022-09-12T13:33:23.498Z,21.57
2022-09-12T13:36:04.720Z,21.54
2022-09-12T13:38:51.735Z,21.39
2022-09-12T13:41:37.131Z,21.50
2022-09-12T13:44:03.723Z,21.49
2022-09-12T13:46:33.938Z,21.39
2022-09-12T13:49:17.888Z,21.20
2022-09-12T13:51:44.669Z,20.59
2022-09-12T13:54:22.517Z,21.15
2022-09-12T14:14:28.262Z,21.23
2022-09-12T14:16:56.261Z,21.17
2022-09-12T14:19:26.056Z,21.19
2022-09-12T14:21:54.615Z,20.93
2022-09-12T14:24:26.053Z,21.13
2022-09-12T14:26:54.307Z,20.87
2022-09-12T14:29:23.898Z,21.31
2022-09-12T14:32:02.535Z,21.40
2022-09-12T14:34:31.306Z,20.88
2022-09-12T14:36:58.963Z,20.64
2022-09-12T14:39:32.832Z,21.11
2022-09-12T14:42:08.140Z,21.01
2022-09-12T14:44:36.352Z,21.13
2022-09-12T14:47:21.510Z,21.05
2022-09-12T14:49:51.614Z,21.08
2022-09-12T14:52:40.070Z,21.09
2022-09-12T14:55:18.800Z,21.16
2022-09-12T14:57:45.908Z,21.20
2022-09-12T15:00:13.254Z,21.15
2022-09-12T15:02:43.381Z,21.15
2022-09-12T15:05:23.982Z,21.16
2022-09-12T15:07:53.812Z,21.20
2022-09-12T15:10:35.367Z,21.23
2022-09-12T15:13:11.886Z,21.33
2022-09-12T15:15:40.437Z,21.26
2022-09-12T15:18:09.631Z,21.28
2022-09-12T15:20:38.999Z,21.41
2022-09-12T15:23:08.949Z,21.45
2022-09-12T15:25:36.197Z,21.55
2022-09-12T15:28:19.418Z,21.58
2022-09-12T15:30:49.416Z,21.52
2022-09-12T15:33:18.221Z,21.29
2022-09-12T15:35:46.086Z,21.49
2022-09-12T15:38:12.984Z,21.36
2022-09-12T15:40:41.127Z,20.73
2022-09-12T15:43:12.864Z,21.32
2022-09-12T15:45:42.385Z,20.93
2022-09-12T15:48:10.235Z,21.24
2022-09-12T15:50:39.058Z,20.97
2022-09-12T15:53:07.077Z,21.26
2022-09-12T15:55:34.312Z,20.67
2022-09-12T15:58:06.328Z,20.99
2022-09-12T16:00:35.568Z,21.05
2022-09-12T16:03:04.724Z,21.04
2022-09-12T16:05:34.406Z,20.80
2022-09-12T16:08:03.452Z,20.81
2022-09-12T16:10:33.166Z,20.36
2022-09-12T16:13:04.240Z,20.78
2022-09-12T16:15:33.706Z,20.52
2022-09-12T16:18:00.926Z,20.44
2022-09-12T16:20:29.454Z,20.16
2022-09-12T16:22:57.690Z,19.95
2022-09-12T16:25:26.974Z,20.17
2022-09-12T16:27:53.847Z,20.15
2022-09-12T16:30:21.648Z,20.10
2022-09-12T16:32:48.373Z,20.15
2022-09-12T16:35:15.781Z,20.07
2022-09-12T16:37:42.536Z,19.81
2022-09-12T16:40:15.808Z,19.91
2022-09-12T16:42:43.882Z,19.84
2022-09-12T16:45:14.045Z,19.51
2022-09-12T16:47:42.232Z,19.02
2022-09-12T16:50:10.010Z,19.36
2022-09-12T16:52:39.825Z,19.21
2022-09-12T16:55:10.058Z,19.62
2022-09-12T16:57:37.651Z,18.84
2022-09-12T17:00:08.416Z,19.41
2022-09-12T17:02:37.306Z,19.10
2022-09-12T17:05:04.870Z,18.97
2022-09-12T17:07:31.993Z,18.64
2022-09-12T17:09:59.754Z,18.03
2022-09-12T17:12:28.330Z,17.66
2022-09-12T17:14:58.670Z,18.15
2022-09-12T17:17:25.973Z,17.56
2022-09-12T17:19:53.915Z,17.24
2022-09-12T17:22:20.926Z,17.30
2022-09-12T17:24:47.760Z,16.82
2022-09-12T17:27:15.664Z,17.37
2022-09-12T17:29:42.332Z,16.39
2022-09-12T17:32:14.382Z,16.66
2022-09-12T17:34:44.994Z,16.48
2022-09-12T17:37:13.570Z,16.12
2022-09-12T17:39:42.779Z,16.39
2022-09-12T17:42:09.795Z,16.38
2022-09-12T17:44:50.449Z,16.23
2022-09-12T17:47:17.288Z,16.07
2022-09-12T17:49:45.661Z,15.90
2022-09-12T17:52:13.312Z,15.60
2022-09-12T17:54:40.195Z,15.19
2022-09-12T17:57:08.265Z,15.33
2022-09-12T17:59:38.020Z,14.90
2022-09-12T18:02:16.273Z,14.73
2022-09-12T18:04:45.986Z,14.67
2022-09-12T18:07:18.177Z,14.19
2022-09-12T18:09:47.794Z,14.79
2022-09-12T18:12:19.953Z,15.00
2022-09-12T18:14:47.902Z,14.85
2022-09-12T18:17:15.889Z,14.77
2022-09-12T18:19:44.538Z,14.68
2022-09-12T18:22:12.895Z,14.50
2022-09-12T18:24:43.910Z,14.59
2022-09-12T18:27:12.040Z,14.33
2022-09-12T18:29:40.176Z,14.32
2022-09-12T18:32:09.946Z,14.19
2022-09-12T18:34:38.785Z,13.71
2022-09-12T18:37:08.025Z,13.63
2022-09-12T18:39:37.978Z,13.76
2022-09-12T18:42:06.506Z,12.98
2022-09-12T18:44:51.980Z,13.57
2022-09-12T18:47:38.498Z,13.52
2022-09-12T18:50:06.532Z,13.55
2022-09-12T18:52:33.018Z,13.51
2022-09-12T18:54:59.580Z,13.45
2022-09-12T18:57:26.101Z,13.42
2022-09-12T18:59:53.120Z,13.33
2022-09-12T19:02:19.767Z,13.29
2022-09-12T19:04:46.620Z,13.21
2022-09-12T19:07:14.282Z,13.15
2022-09-12T19:09:43.302Z,13.13
2022-09-12T19:12:11.783Z,13.08
2022-09-12T19:14:40.569Z,13.07
2022-09-12T19:17:07.966Z,13.00
2022-09-12T19:19:40.368Z,12.93
2022-09-12T19:22:11.236Z,12.91
2022-09-12T19:24:38.547Z,12.84
2022-09-12T19:27:07.713Z,12.81
2022-09-12T19:29:36.580Z,12.78
2022-09-12T19:32:03.691Z,12.73
2022-09-12T19:34:33.314Z,12.75
2022-09-12T19:37:00.484Z,12.70
2022-09-12T19:39:28.879Z,12.67
2022-09-12T19:41:58.642Z,12.62
2022-09-12T19:44:27.536Z,12.56
2022-09-12T19:46:56.353Z,12.48
2022-09-12T19:49:24.817Z,12.46
2022-09-12T19:51:51.649Z,12.43
2022-09-12T19:54:18.628Z,12.37
2022-09-12T19:56:45.863Z,12.31
2022-09-12T19:59:14.621Z,12.31
2022-09-12T20:01:41.970Z,12.36
2022-09-12T20:04:10.919Z,12.37
2022-09-12T20:06:39.983Z,12.40
2022-09-12T20:09:07.574Z,12.42
2022-09-12T20:11:34.543Z,12.42
2022-09-12T20:14:02.699Z,12.37
2022-09-12T20:16:33.396Z,12.27
2022-09-12T20:19:07.589Z,12.15
2022-09-12T20:21:37.896Z,12.14
2022-09-12T20:24:08.388Z,12.08
2022-09-12T20:26:35.997Z,12.00
2022-09-12T20:29:05.971Z,11.89
2022-09-12T20:31:37.834Z,11.84
2022-09-12T20:34:06.924Z,11.78
2022-09-12T20:36:36.467Z,11.70
2022-09-12T20:39:06.094Z,11.68
2022-09-12T20:41:34.463Z,11.58
2022-09-12T20:44:03.917Z,11.52
2022-09-12T20:46:33.540Z,11.50
2022-09-12T20:49:00.241Z,11.48
2022-09-12T20:51:30.406Z,11.36
2022-09-12T20:54:00.431Z,11.32
2022-09-12T20:56:28.431Z,11.22
2022-09-12T20:58:56.065Z,11.18
2022-09-12T21:01:24.688Z,11.22
2022-09-12T21:03:52.772Z,11.22
2022-09-12T21:06:20.762Z,11.24
2022-09-12T21:08:50.059Z,11.23
2022-09-12T21:11:18.631Z,11.21
2022-09-12T21:13:48.063Z,11.22
2022-09-12T21:16:17.324Z,11.22
2022-09-12T21:18:44.776Z,11.23
2022-09-12T21:21:14.911Z,11.23
2022-09-12T21:23:42.419Z,11.23
2022-09-12T21:26:10.090Z,11.25
2022-09-12T21:28:39.462Z,11.22
2022-09-12T21:31:07.421Z,11.17
2022-09-12T21:33:36.362Z,11.10
2022-09-12T21:36:07.007Z,11.11
2022-09-12T21:38:37.360Z,11.08
2022-09-12T21:41:08.427Z,11.07
2022-09-12T21:43:35.816Z,11.04
2022-09-12T21:46:04.312Z,11.08
2022-09-12T21:48:32.338Z,11.06
2022-09-12T21:50:59.807Z,11.06
2022-09-12T21:53:28.542Z,11.02
2022-09-12T21:56:05.270Z,10.95
2022-09-12T21:58:32.706Z,10.88
2022-09-12T22:01:01.437Z,10.85
2022-09-12T22:03:29.625Z,10.81
2022-09-12T22:06:00.538Z,10.76
2022-09-12T22:08:34.202Z,10.67
2022-09-12T22:11:03.674Z,10.64
2022-09-12T22:13:32.430Z,10.60
2022-09-12T22:16:00.625Z,10.62
2022-09-12T22:18:29.392Z,10.58
2022-09-12T22:21:12.460Z,10.52
2022-09-12T22:23:59.719Z,10.52
2022-09-12T22:26:28.402Z,10.54
2022-09-12T22:28:57.372Z,10.49
2022-09-12T22:31:27.071Z,10.46
2022-09-12T22:33:57.041Z,10.45
2022-09-12T22:36:31.146Z,10.43
2022-09-12T22:38:59.860Z,10.41
2022-09-12T22:41:26.602Z,10.44
2022-09-12T22:43:53.379Z,10.40
2022-09-12T22:46:21.207Z,10.28
2022-09-12T22:48:48.137Z,10.13
2022-09-12T22:51:15.320Z,10.02
2022-09-12T22:53:42.626Z,9.95
2022-09-12T22:56:09.800Z,9.88
2022-09-12T22:58:37.384Z,9.82
2022-09-12T23:01:08.046Z,9.83
2022-09-12T23:03:36.953Z,9.85
2022-09-12T23:06:07.018Z,9.87
2022-09-12T23:08:36.102Z,9.86
2022-09-12T23:11:14.833Z,9.88
2022-09-12T23:13:43.141Z,9.93
2022-09-12T23:16:14.759Z,10.03
2022-09-12T23:18:41.550Z,10.06
2022-09-12T23:21:10.049Z,9.99
2022-09-12T23:23:39.447Z,9.95
2022-09-12T23:26:10.882Z,9.97
2022-09-12T23:28:39.568Z,10.03
2022-09-12T23:31:07.496Z,10.04
2022-09-12T23:33:34.340Z,10.00
2022-09-12T23:36:02.403Z,9.94
2022-09-12T23:38:30.332Z,9.71
2022-09-12T23:40:58.378Z,9.70
2022-09-12T23:43:26.785Z,9.76
2022-09-12T23:45:53.511Z,9.75
2022-09-12T23:48:20.526Z,9.63
2022-09-12T23:50:48.338Z,9.52
2022-09-12T23:53:17.602Z,9.41
2022-09-12T23:55:45.859Z,9.32
2022-09-12T23:58:13.381Z,9.29
